createdAt,value
2023-05-25T00:00:32.198Z,0
2023-05-25T00:01:32.291Z,0
2023-05-25T00:02:32.351Z,0
2023-05-25T00:03:32.808Z,0
2023-05-25T00:04:32.332Z,0
2023-05-25T00:05:32.195Z,0
2023-05-25T00:06:32.211Z,0
2023-05-25T00:07:32.197Z,0
2023-05-25T00:08:32.569Z,0
2023-05-25T00:09:32.202Z,0
2023-05-25T00:10:32.220Z,0
2023-05-25T00:11:32.244Z,0
2023-05-25T00:12:32.205Z,0
2023-05-25T00:13:32.181Z,0
2023-05-25T00:14:32.260Z,0
2023-05-25T00:15:32.274Z,0
2023-05-25T00:16:32.280Z,0
2023-05-25T00:17:32.265Z,0
2023-05-25T00:18:32.203Z,0
2023-05-25T00:19:32.259Z,0
2023-05-25T00:20:32.269Z,0
2023-05-25T00:21:32.210Z,0
2023-05-25T00:22:32.220Z,0
2023-05-25T00:23:32.209Z,0
2023-05-25T00:24:32.222Z,0
2023-05-25T00:25:32.204Z,0
2023-05-25T00:26:32.209Z,0
2023-05-25T00:27:32.214Z,0
2023-05-25T00:28:32.581Z,0
2023-05-25T00:29:32.206Z,0
2023-05-25T00:30:32.245Z,0
2023-05-25T00:31:32.331Z,0
2023-05-25T00:32:32.237Z,0
2023-05-25T00:33:32.204Z,0
2023-05-25T00:34:32.206Z,0
2023-05-25T00:35:32.195Z,0
2023-05-25T00:36:32.192Z,0
2023-05-25T00:37:32.207Z,0
2023-05-25T00:38:32.210Z,0
2023-05-25T00:39:32.244Z,0
2023-05-25T00:40:32.192Z,0
2023-05-25T00:41:32.227Z,0
2023-05-25T00:42:32.212Z,0
2023-05-25T00:43:32.249Z,0
2023-05-25T00:44:32.226Z,0
2023-05-25T00:45:32.224Z,0
2023-05-25T00:46:32.239Z,0
2023-05-25T00:47:32.222Z,0
2023-05-25T00:48:32.430Z,0
2023-05-25T00:49:32.215Z,0
2023-05-25T00:50:32.195Z,0
2023-05-25T00:51:32.212Z,0
2023-05-25T00:52:32.210Z,0
2023-05-25T00:53:32.216Z,0
2023-05-25T00:54:32.173Z,0
2023-05-25T00:55:32.223Z,0
2023-05-25T00:56:32.261Z,0
2023-05-25T00:57:32.212Z,0
2023-05-25T00:58:32.200Z,0
2023-05-25T00:59:32.198Z,0
2023-05-25T01:00:32.233Z,0
2023-05-25T01:01:32.249Z,0
2023-05-25T01:02:32.330Z,0
2023-05-25T01:03:32.279Z,0
2023-05-25T01:04:32.249Z,0
2023-05-25T01:05:32.203Z,0
2023-05-25T01:06:32.202Z,0
2023-05-25T01:07:32.245Z,0
2023-05-25T01:08:32.628Z,0
2023-05-25T01:09:32.215Z,0
2023-05-25T01:10:32.216Z,0
2023-05-25T01:11:32.239Z,0
2023-05-25T01:12:32.178Z,0
2023-05-25T01:13:32.186Z,0
2023-05-25T01:14:32.182Z,0
2023-05-25T01:15:32.221Z,0
2023-05-25T01:16:32.287Z,0
2023-05-25T01:17:32.319Z,0
2023-05-25T01:18:32.387Z,0
2023-05-25T01:19:32.200Z,0
2023-05-25T01:20:32.292Z,0
2023-05-25T01:21:32.244Z,0
2023-05-25T01:22:32.225Z,0
2023-05-25T01:23:32.194Z,0
2023-05-25T01:24:32.240Z,0
2023-05-25T01:25:32.194Z,0
2023-05-25T01:26:32.245Z,0
2023-05-25T01:27:32.272Z,0
2023-05-25T01:28:32.354Z,0
2023-05-25T01:29:32.198Z,0
2023-05-25T01:30:32.215Z,0
2023-05-25T01:31:32.239Z,0
2023-05-25T01:32:32.220Z,0
2023-05-25T01:33:32.189Z,0
2023-05-25T01:34:32.193Z,0
2023-05-25T01:35:32.154Z,0
2023-05-25T01:36:32.251Z,0
2023-05-25T01:37:32.192Z,0
2023-05-25T01:38:32.578Z,0
2023-05-25T01:39:32.195Z,0
2023-05-25T01:40:32.323Z,0
2023-05-25T01:41:32.342Z,0
2023-05-25T01:42:32.300Z,0
2023-05-25T01:43:32.369Z,0
2023-05-25T01:44:32.370Z,0
2023-05-25T01:45:32.350Z,0
2023-05-25T01:46:32.398Z,0
2023-05-25T01:47:32.417Z,0
2023-05-25T01:48:32.881Z,0
2023-05-25T01:49:32.341Z,0
2023-05-25T01:50:32.319Z,0
2023-05-25T01:51:32.321Z,0
2023-05-25T01:52:32.369Z,0
2023-05-25T01:53:32.246Z,0
2023-05-25T01:54:32.312Z,0
2023-05-25T01:55:32.288Z,0
2023-05-25T01:56:32.381Z,0
2023-05-25T01:57:32.267Z,0
2023-05-25T01:58:32.613Z,0
2023-05-25T01:59:32.207Z,0
2023-05-25T02:00:32.301Z,0
2023-05-25T02:01:32.212Z,0
2023-05-25T02:02:32.201Z,0
2023-05-25T02:03:32.179Z,0
2023-05-25T02:04:32.238Z,0
2023-05-25T02:05:32.206Z,0
2023-05-25T02:06:32.288Z,0
2023-05-25T02:07:32.203Z,0
2023-05-25T02:08:32.232Z,0
2023-05-25T02:09:32.198Z,0
2023-05-25T02:10:32.190Z,0
2023-05-25T02:11:32.194Z,0
2023-05-25T02:12:32.204Z,0
2023-05-25T02:13:32.188Z,0
2023-05-25T02:14:32.211Z,0
2023-05-25T02:15:32.198Z,0
2023-05-25T02:16:32.251Z,0
2023-05-25T02:17:32.207Z,0
2023-05-25T02:18:32.204Z,0
2023-05-25T02:19:32.209Z,0
2023-05-25T02:20:32.228Z,0
2023-05-25T02:21:32.208Z,0
2023-05-25T02:22:32.205Z,0
2023-05-25T02:23:32.208Z,0
2023-05-25T02:24:32.223Z,0
2023-05-25T02:25:32.179Z,0.85
2023-05-25T02:26:32.267Z,0
2023-05-25T02:27:32.212Z,0
2023-05-25T02:28:32.601Z,0.85
2023-05-25T02:29:32.160Z,0.36
2023-05-25T02:30:32.193Z,0.36
2023-05-25T02:31:32.210Z,0
2023-05-25T02:32:32.210Z,0.36
2023-05-25T02:33:32.210Z,0.36
2023-05-25T02:34:32.209Z,0.36
2023-05-25T02:35:32.185Z,0
2023-05-25T02:36:32.199Z,0.36
2023-05-25T02:37:32.199Z,0.36
2023-05-25T02:38:32.255Z,0.36
2023-05-25T02:39:32.216Z,0.85
2023-05-25T02:40:32.225Z,0.85
2023-05-25T02:41:32.180Z,0.85
2023-05-25T02:42:32.203Z,1.22
2023-05-25T02:43:32.170Z,1.22
2023-05-25T02:44:32.178Z,1.22
2023-05-25T02:45:32.182Z,1.71
2023-05-25T02:46:32.300Z,1.22
2023-05-25T02:47:32.247Z,2.08
2023-05-25T02:48:32.600Z,1.71
2023-05-25T02:49:32.195Z,1.71
2023-05-25T02:50:32.218Z,1.71
2023-05-25T02:51:32.180Z,1.71
2023-05-25T02:52:32.212Z,1.71
2023-05-25T02:53:32.200Z,0.85
2023-05-25T02:54:32.224Z,1.22
2023-05-25T02:55:32.181Z,2.08
2023-05-25T02:56:32.187Z,1.71
2023-05-25T02:57:32.198Z,2.57
2023-05-25T02:58:32.602Z,2.57
2023-05-25T02:59:32.190Z,2.94
2023-05-25T03:00:32.220Z,2.94
2023-05-25T03:01:32.196Z,2.94
2023-05-25T03:02:32.230Z,3.79
2023-05-25T03:03:32.237Z,2.94
2023-05-25T03:04:32.189Z,4.28
2023-05-25T03:05:32.174Z,3.79
2023-05-25T03:06:32.189Z,5.14
2023-05-25T03:07:32.198Z,5.63
2023-05-25T03:08:32.188Z,6.48
2023-05-25T03:09:32.190Z,7.34
2023-05-25T03:10:32.320Z,9.05
2023-05-25T03:11:32.295Z,10.77
2023-05-25T03:12:32.331Z,11.25
2023-05-25T03:13:32.379Z,11.62
2023-05-25T03:14:32.357Z,12.11
2023-05-25T03:15:32.320Z,13.33
2023-05-25T03:16:32.214Z,13.33
2023-05-25T03:17:32.239Z,12.97
2023-05-25T03:18:32.548Z,13.82
2023-05-25T03:19:32.153Z,13.33
2023-05-25T03:20:32.312Z,14.31
2023-05-25T03:21:32.325Z,13.82
2023-05-25T03:22:32.376Z,13.82
2023-05-25T03:23:32.265Z,14.68
2023-05-25T03:24:32.304Z,13.33
2023-05-25T03:25:32.249Z,13.33
2023-05-25T03:26:32.240Z,13.33
2023-05-25T03:27:32.208Z,13.82
2023-05-25T03:28:32.325Z,13.82
2023-05-25T03:29:32.318Z,13.82
2023-05-25T03:30:32.226Z,13.82
2023-05-25T03:31:32.304Z,12.97
2023-05-25T03:32:32.193Z,12.97
2023-05-25T03:33:32.180Z,12.11
2023-05-25T03:34:32.277Z,11.62
2023-05-25T03:35:32.389Z,11.25
2023-05-25T03:36:32.249Z,12.11
2023-05-25T03:37:32.208Z,12.97
2023-05-25T03:38:32.702Z,13.33
2023-05-25T03:39:32.328Z,13.82
2023-05-25T03:40:32.337Z,13.82
2023-05-25T03:41:32.253Z,14.31
2023-05-25T03:42:32.306Z,12.97
2023-05-25T03:43:32.315Z,12.97
2023-05-25T03:44:32.276Z,12.11
2023-05-25T03:45:32.218Z,11.62
2023-05-25T03:46:32.340Z,11.62
2023-05-25T03:47:32.302Z,11.25
2023-05-25T03:48:32.737Z,11.25
2023-05-25T03:49:32.301Z,11.25
2023-05-25T03:50:32.215Z,11.25
2023-05-25T03:51:32.310Z,11.25
2023-05-25T03:52:32.194Z,11.25
2023-05-25T03:53:32.173Z,10.77
2023-05-25T03:54:32.198Z,11.25
2023-05-25T03:55:32.240Z,12.48
2023-05-25T03:56:32.224Z,13.33
2023-05-25T03:57:32.211Z,14.31
2023-05-25T03:58:32.503Z,15.17
2023-05-25T03:59:32.174Z,15.17
2023-05-25T04:00:32.221Z,15.17
2023-05-25T04:01:32.264Z,16.02
2023-05-25T04:02:32.269Z,16.39
2023-05-25T04:03:32.411Z,17.25
2023-05-25T04:04:32.180Z,18.6
2023-05-25T04:05:32.189Z,19.45
2023-05-25T04:06:32.223Z,20.8
2023-05-25T04:07:32.197Z,20.31
2023-05-25T04:08:32.199Z,21.16
2023-05-25T04:09:32.182Z,21.65
2023-05-25T04:10:32.199Z,22.87
2023-05-25T04:11:32.190Z,23.85
2023-05-25T04:12:32.204Z,23.85
2023-05-25T04:13:32.192Z,24.71
2023-05-25T04:14:32.213Z,24.71
2023-05-25T04:15:32.229Z,25.56
2023-05-25T04:16:32.327Z,25.07
2023-05-25T04:17:32.236Z,24.22
2023-05-25T04:18:32.223Z,24.22
2023-05-25T04:19:32.181Z,24.22
2023-05-25T04:20:32.219Z,24.71
2023-05-25T04:21:32.176Z,25.94
2023-05-25T04:22:32.160Z,25.94
2023-05-25T04:23:32.160Z,26.79
2023-05-25T04:24:32.307Z,27.28
2023-05-25T04:25:32.171Z,28.14
2023-05-25T04:26:32.199Z,29.85
2023-05-25T04:27:32.165Z,31.19
2023-05-25T04:28:32.157Z,32.9
2023-05-25T04:29:32.194Z,33.39
2023-05-25T04:30:32.189Z,34.62
2023-05-25T04:31:32.194Z,35.48
2023-05-25T04:32:32.281Z,35.48
2023-05-25T04:33:32.188Z,36.82
2023-05-25T04:34:32.381Z,38.53
2023-05-25T04:35:32.222Z,39.39
2023-05-25T04:36:32.170Z,42.45
2023-05-25T04:37:32.152Z,44.16
2023-05-25T04:38:32.214Z,43.8
2023-05-25T04:39:32.136Z,42.94
2023-05-25T04:40:32.175Z,40.73
2023-05-25T04:41:32.182Z,39.02
2023-05-25T04:42:32.181Z,39.02
2023-05-25T04:43:32.168Z,38.53
2023-05-25T04:44:32.198Z,39.39
2023-05-25T04:45:32.174Z,40.73
2023-05-25T04:46:32.326Z,42.94
2023-05-25T04:47:32.176Z,43.8
2023-05-25T04:48:32.164Z,45.51
2023-05-25T04:49:32.228Z,45.87
2023-05-25T04:50:32.202Z,46.36
2023-05-25T04:51:32.202Z,46.73
2023-05-25T04:52:32.179Z,45.02
2023-05-25T04:53:32.207Z,42.94
2023-05-25T04:54:32.193Z,41.1
2023-05-25T04:55:32.153Z,40.73
2023-05-25T04:56:32.193Z,39.39
2023-05-25T04:57:32.171Z,40.73
2023-05-25T04:58:32.189Z,44.16
2023-05-25T04:59:32.210Z,49.42
2023-05-25T05:00:32.176Z,52.48
2023-05-25T05:01:32.252Z,54.19
2023-05-25T05:02:32.252Z,54.19
2023-05-25T05:03:32.227Z,55.05
2023-05-25T05:04:32.185Z,55.9
2023-05-25T05:05:32.189Z,58.11
2023-05-25T05:06:32.176Z,83.68
2023-05-25T05:07:32.174Z,106.68
2023-05-25T05:08:32.577Z,99.7
2023-05-25T05:09:32.169Z,99.7
2023-05-25T05:10:32.247Z,110.96
2023-05-25T05:11:32.151Z,114.87
2023-05-25T05:12:32.170Z,108.39
2023-05-25T05:13:32.164Z,110.96
2023-05-25T05:14:32.186Z,118.42
2023-05-25T05:15:32.167Z,114.02
2023-05-25T05:16:32.169Z,90.16
2023-05-25T05:17:32.171Z,78.9
2023-05-25T05:18:32.182Z,98.85
2023-05-25T05:19:32.151Z,127.1
2023-05-25T05:20:32.232Z,131.39
2023-05-25T05:21:32.192Z,125.27
2023-05-25T05:22:32.190Z,107.04
2023-05-25T05:23:32.162Z,90.16
2023-05-25T05:24:32.198Z,81.97
2023-05-25T05:25:32.169Z,69.36
2023-05-25T05:26:38.412Z,69.73
2023-05-25T05:27:32.153Z,90.16
2023-05-25T05:28:32.564Z,144.36
2023-05-25T05:29:32.158Z,148.27
2023-05-25T05:30:32.268Z,144.36
2023-05-25T05:31:32.238Z,149.61
2023-05-25T05:32:32.298Z,154.75
2023-05-25T05:33:32.451Z,154.75
2023-05-25T05:34:32.209Z,156.1
2023-05-25T05:35:32.189Z,160.51
2023-05-25T05:36:38.923Z,166.99
2023-05-25T05:37:32.160Z,167.85
2023-05-25T05:38:32.214Z,170.9
2023-05-25T05:39:32.285Z,170.05
2023-05-25T05:40:32.195Z,176.9
2023-05-25T05:41:32.266Z,173.84
2023-05-25T05:42:32.195Z,173.84
2023-05-25T05:43:32.181Z,175.19
2023-05-25T05:44:32.176Z,175.67
2023-05-25T05:45:32.234Z,176.53
2023-05-25T05:46:32.226Z,180.44
2023-05-25T05:47:32.208Z,183.02
2023-05-25T05:48:32.232Z,184.36
2023-05-25T05:49:32.204Z,188.27
2023-05-25T05:50:32.202Z,193.41
2023-05-25T05:51:32.252Z,195.98
2023-05-25T05:52:32.193Z,200.39
2023-05-25T05:53:32.155Z,202.1
2023-05-25T05:54:32.167Z,203.44
2023-05-25T05:55:32.136Z,204.66
2023-05-25T05:56:32.175Z,209.44
2023-05-25T05:57:32.163Z,211.64
2023-05-25T05:58:32.186Z,216.41
2023-05-25T05:59:32.192Z,218.12
2023-05-25T06:00:32.228Z,218.61
2023-05-25T06:01:32.230Z,221.18
2023-05-25T06:02:32.312Z,224.61
2023-05-25T06:03:32.245Z,226.44
2023-05-25T06:04:32.190Z,227.66
2023-05-25T06:05:32.203Z,225.46
2023-05-25T06:06:32.173Z,226.81
2023-05-25T06:07:32.144Z,227.66
2023-05-25T06:08:32.230Z,227.66
2023-05-25T06:09:32.151Z,228.52
2023-05-25T06:10:32.184Z,233.78
2023-05-25T06:11:32.179Z,237.21
2023-05-25T06:12:32.219Z,239.41
2023-05-25T06:13:32.145Z,240.76
2023-05-25T06:14:32.170Z,241.98
2023-05-25T06:15:32.187Z,247.61
2023-05-25T06:16:32.224Z,248.1
2023-05-25T06:17:32.250Z,248.95
2023-05-25T06:18:32.758Z,256.78
2023-05-25T06:19:32.269Z,260.69
2023-05-25T06:20:32.224Z,264.12
2023-05-25T06:21:32.167Z,158.67
2023-05-25T06:22:32.151Z,176.9
2023-05-25T06:23:32.178Z,271.95
2023-05-25T06:24:32.186Z,278.44
2023-05-25T06:25:32.165Z,241.12
2023-05-25T06:26:32.142Z,277.58
2023-05-25T06:27:32.204Z,253.73
2023-05-25T06:28:32.657Z,288.47
2023-05-25T06:29:32.177Z,291.03
2023-05-25T06:30:32.242Z,223.39
2023-05-25T06:31:32.224Z,101.41
2023-05-25T06:32:32.221Z,191.21
2023-05-25T06:33:32.165Z,150.47
2023-05-25T06:34:32.281Z,181.3
2023-05-25T06:35:32.167Z,217.27
2023-05-25T06:36:32.376Z,188.64
2023-05-25T06:37:32.159Z,137.87
2023-05-25T06:38:32.647Z,81.1
2023-05-25T06:39:32.167Z,77.19
2023-05-25T06:40:32.172Z,75.85
2023-05-25T06:41:32.161Z,109.24
2023-05-25T06:42:32.214Z,103.13
2023-05-25T06:43:32.233Z,89.31
2023-05-25T06:44:32.197Z,115.36
2023-05-25T06:45:32.152Z,112.67
2023-05-25T06:46:32.210Z,176.53
2023-05-25T06:47:32.195Z,266.69
2023-05-25T06:48:32.518Z,271.95
2023-05-25T06:49:32.162Z,281.86
2023-05-25T06:50:32.178Z,333.98
2023-05-25T06:51:32.121Z,302.78
2023-05-25T06:52:32.178Z,111.44
2023-05-25T06:53:32.171Z,110.1
2023-05-25T06:54:32.183Z,98.85
2023-05-25T06:55:32.150Z,103.61
2023-05-25T06:56:32.187Z,282.35
2023-05-25T06:57:32.160Z,122.34
2023-05-25T06:58:32.177Z,291.03
2023-05-25T06:59:32.143Z,259.84
2023-05-25T07:00:32.451Z,227.3
2023-05-25T07:01:32.235Z,214.7
2023-05-25T07:02:32.194Z,218.98
2023-05-25T07:03:32.180Z,253.24
2023-05-25T07:04:32.211Z,260.21
2023-05-25T07:05:32.171Z,218.98
2023-05-25T07:06:32.218Z,361.74
2023-05-25T07:07:32.169Z,366.03
2023-05-25T07:08:32.150Z,335.32
2023-05-25T07:09:32.151Z,375.2
2023-05-25T07:10:32.176Z,383.4
2023-05-25T07:11:32.203Z,386.46
2023-05-25T07:12:32.189Z,380.83
2023-05-25T07:13:32.171Z,376.91
2023-05-25T07:14:32.162Z,371.78
2023-05-25T07:15:32.142Z,340.09
2023-05-25T07:16:32.282Z,363.95
2023-05-25T07:17:32.173Z,374.35
2023-05-25T07:18:32.741Z,379.12
2023-05-25T07:19:32.151Z,378.63
2023-05-25T07:20:32.234Z,386.46
2023-05-25T07:21:32.207Z,388.17
2023-05-25T07:22:32.214Z,388.66
2023-05-25T07:23:32.162Z,386.46
2023-05-25T07:24:32.263Z,387.32
2023-05-25T07:25:32.166Z,386.95
2023-05-25T07:26:32.187Z,385.6
2023-05-25T07:27:32.146Z,389.03
2023-05-25T07:28:32.806Z,391.23
2023-05-25T07:29:32.127Z,395.64
2023-05-25T07:30:32.202Z,398.2
2023-05-25T07:31:32.226Z,400.4
2023-05-25T07:32:32.235Z,405.18
2023-05-25T07:33:32.155Z,408.11
2023-05-25T07:34:32.167Z,404.2
2023-05-25T07:35:32.117Z,406.03
2023-05-25T07:36:32.172Z,409.46
2023-05-25T07:37:32.157Z,414.23
2023-05-25T07:38:32.174Z,417.66
2023-05-25T07:39:32.190Z,418.15
2023-05-25T07:40:32.157Z,419.49
2023-05-25T07:41:32.163Z,427.2
2023-05-25T07:42:32.133Z,429.03
2023-05-25T07:43:32.162Z,427.2
2023-05-25T07:44:32.167Z,426.34
2023-05-25T07:45:32.248Z,429.03
2023-05-25T07:46:32.240Z,425.11
2023-05-25T07:47:32.198Z,427.69
2023-05-25T07:48:32.782Z,426.83
2023-05-25T07:49:32.143Z,426.34
2023-05-25T07:50:32.154Z,428.18
2023-05-25T07:51:32.177Z,431.97
2023-05-25T07:52:32.209Z,438.57
2023-05-25T07:53:32.174Z,442.86
2023-05-25T07:54:32.130Z,446.77
2023-05-25T07:55:32.183Z,450.69
2023-05-25T07:56:32.181Z,454.11
2023-05-25T07:57:32.275Z,459.74
2023-05-25T07:58:32.429Z,468.06
2023-05-25T07:59:32.168Z,467.2
2023-05-25T08:00:32.174Z,466.71
2023-05-25T08:01:32.166Z,465.37
2023-05-25T08:02:32.223Z,456.31
2023-05-25T08:03:48.173Z,447.26
2023-05-25T08:04:32.347Z,438.94
2023-05-25T08:05:32.157Z,436.74
2023-05-25T08:06:32.141Z,434.66
2023-05-25T08:07:32.164Z,449.34
2023-05-25T08:08:32.633Z,462.79
2023-05-25T08:09:32.168Z,477.6
2023-05-25T08:10:32.187Z,484.08
2023-05-25T08:11:32.165Z,491.91
2023-05-25T08:12:45.996Z,504.03
2023-05-25T08:13:32.173Z,527.88
2023-05-25T08:14:32.150Z,296.17
2023-05-25T08:15:32.197Z,238.56
2023-05-25T08:16:32.216Z,243.32
2023-05-25T08:17:32.188Z,252.87
2023-05-25T08:18:32.609Z,229.87
2023-05-25T08:19:32.170Z,195.61
2023-05-25T08:20:32.196Z,154.39
2023-05-25T08:21:34.653Z,152.19
2023-05-25T08:22:32.188Z,153.9
2023-05-25T08:23:32.209Z,166.5
2023-05-25T08:24:32.140Z,172.12
2023-05-25T08:25:32.131Z,487.51
2023-05-25T08:26:45.424Z,445.91
2023-05-25T08:27:34.331Z,477.6
2023-05-25T08:28:32.624Z,527.51
2023-05-25T08:29:32.163Z,520.05
2023-05-25T08:30:32.145Z,317.46
2023-05-25T08:31:32.298Z,191.7
2023-05-25T08:32:32.167Z,169.56
2023-05-25T08:33:32.201Z,165.27
2023-05-25T08:34:32.125Z,163.44
2023-05-25T08:35:32.141Z,160.51
2023-05-25T08:36:32.158Z,157.81
2023-05-25T08:37:32.155Z,161.36
2023-05-25T08:38:32.428Z,157.44
2023-05-25T08:39:34.113Z,178.24
2023-05-25T08:40:32.137Z,573.88
2023-05-25T08:41:32.153Z,543.54
2023-05-25T08:42:32.133Z,494.11
2023-05-25T08:43:32.144Z,562.13
2023-05-25T08:44:32.126Z,571.31
2023-05-25T08:45:34.862Z,568.25
2023-05-25T08:46:32.114Z,564.82
2023-05-25T08:47:32.194Z,574.74
2023-05-25T08:48:40.919Z,574.74
2023-05-25T08:49:32.144Z,569.96
2023-05-25T08:50:32.196Z,464.14
2023-05-25T08:51:32.158Z,555.65
2023-05-25T08:52:32.140Z,430.74
2023-05-25T08:53:32.147Z,384.74
2023-05-25T08:54:32.150Z,207.73
2023-05-25T08:55:32.192Z,315.38
2023-05-25T08:56:32.147Z,454.6
2023-05-25T08:57:32.128Z,541.82
2023-05-25T08:58:32.154Z,360.03
2023-05-25T08:59:32.156Z,239.41
2023-05-25T09:00:32.173Z,541.33
2023-05-25T09:01:32.198Z,316.61
2023-05-25T09:02:32.160Z,535.71
2023-05-25T09:03:32.299Z,529.23
2023-05-25T09:04:32.147Z,417.28
2023-05-25T09:05:32.202Z,209.44
2023-05-25T09:06:32.147Z,368.23
2023-05-25T09:07:32.162Z,228.15
2023-05-25T09:08:32.413Z,255.93
2023-05-25T09:09:32.138Z,257.15
2023-05-25T09:10:32.130Z,254.21
2023-05-25T09:11:39.650Z,195.98
2023-05-25T09:12:32.162Z,245.9
2023-05-25T09:13:32.109Z,222.53
2023-05-25T09:14:32.122Z,195.98
2023-05-25T09:15:32.216Z,175.67
2023-05-25T09:16:32.165Z,240.27
2023-05-25T09:17:32.175Z,210.78
2023-05-25T09:18:34.382Z,238.92
2023-05-25T09:19:32.167Z,251.52
2023-05-25T09:20:32.268Z,231.22
2023-05-25T09:21:32.140Z,235.49
2023-05-25T09:22:32.146Z,261.07
2023-05-25T09:23:32.171Z,309.63
2023-05-25T09:24:32.154Z,192.56
2023-05-25T09:25:32.190Z,200.75
2023-05-25T09:26:32.156Z,190.36
2023-05-25T09:27:32.168Z,176.53
2023-05-25T09:28:32.179Z,191.21
2023-05-25T09:29:32.151Z,184.73
2023-05-25T09:30:32.138Z,202.59
2023-05-25T09:31:32.210Z,267.55
2023-05-25T09:32:32.322Z,271.95
2023-05-25T09:33:32.172Z,199.53
2023-05-25T09:34:32.141Z,218.61
2023-05-25T09:35:32.184Z,187.78
2023-05-25T09:36:32.214Z,187.29
2023-05-25T09:37:32.351Z,184.36
2023-05-25T09:38:32.903Z,193.05
2023-05-25T09:39:32.221Z,353.06
2023-05-25T09:40:32.133Z,255.93
2023-05-25T09:41:32.169Z,184.73
2023-05-25T09:42:32.178Z,233.29
2023-05-25T09:43:41.926Z,287.61
2023-05-25T09:44:32.120Z,327.86
2023-05-25T09:45:32.180Z,288.47
2023-05-25T09:46:32.200Z,190.36
2023-05-25T09:47:32.627Z,326.64
2023-05-25T09:48:32.168Z,193.41
2023-05-25T09:49:32.153Z,204.66
2023-05-25T09:50:32.167Z,202.1
2023-05-25T09:51:32.164Z,186.44
2023-05-25T09:52:32.128Z,169.56
2023-05-25T09:53:32.212Z,162.58
2023-05-25T09:54:32.152Z,187.78
2023-05-25T09:55:48.127Z,287.98
2023-05-25T09:56:32.169Z,210.78
2023-05-25T09:57:32.152Z,197.32
2023-05-25T09:58:32.154Z,215.92
2023-05-25T09:59:32.224Z,302.78
2023-05-25T10:00:32.198Z,361.25
2023-05-25T10:01:32.217Z,288.83
2023-05-25T10:02:32.215Z,339.23
2023-05-25T10:03:32.150Z,244.18
2023-05-25T10:04:32.191Z,161.36
2023-05-25T10:05:32.167Z,313.54
2023-05-25T10:06:32.155Z,151.33
2023-05-25T10:07:32.142Z,215.56
2023-05-25T10:08:32.764Z,184.36
2023-05-25T10:09:32.174Z,183.87
2023-05-25T10:10:32.145Z,221.67
2023-05-25T10:11:32.134Z,298.37
2023-05-25T10:12:32.197Z,186.93
2023-05-25T10:13:32.178Z,192.07
2023-05-25T10:14:32.159Z,215.07
2023-05-25T10:15:32.129Z,223.39
2023-05-25T10:16:32.295Z,227.66
2023-05-25T10:17:32.186Z,281
2023-05-25T10:18:32.874Z,181.3
2023-05-25T10:19:32.150Z,154.75
2023-05-25T10:20:34.252Z,202.1
2023-05-25T10:21:32.158Z,336.54
2023-05-25T10:22:32.123Z,219.47
2023-05-25T10:23:31.968Z,206.01
2023-05-25T10:24:32.169Z,134.44
2023-05-25T10:25:32.186Z,140.44
2023-05-25T10:26:32.172Z,331.4
2023-05-25T10:27:47.957Z,124.05
2023-05-25T10:28:32.721Z,122.7
2023-05-25T10:29:32.145Z,125.76
2023-05-25T10:30:32.144Z,124.41
2023-05-25T10:31:48.045Z,121.85
2023-05-25T10:32:32.174Z,126.61
2023-05-25T10:33:32.163Z,175.19
2023-05-25T10:34:32.157Z,156.1
2023-05-25T10:35:32.791Z,133.59
2023-05-25T10:36:32.114Z,178.24
2023-05-25T10:37:32.123Z,123.56
2023-05-25T10:38:32.133Z,122.34
2023-05-25T10:39:32.162Z,310.61
2023-05-25T10:40:32.160Z,275.86
2023-05-25T10:41:32.114Z,204.3
2023-05-25T10:42:32.214Z,128.33
2023-05-25T10:43:32.173Z,146.19
2023-05-25T10:44:32.156Z,215.07
2023-05-25T10:45:32.118Z,176.53
2023-05-25T10:46:32.261Z,212.98
2023-05-25T10:47:32.140Z,153.04
2023-05-25T10:48:32.114Z,153.53
2023-05-25T10:49:32.112Z,131.88
2023-05-25T10:50:32.159Z,169.56
2023-05-25T10:51:32.146Z,137.51
2023-05-25T10:52:32.144Z,127.47
2023-05-25T10:53:32.119Z,124.41
2023-05-25T10:54:32.151Z,224.61
2023-05-25T10:55:32.196Z,159.53
2023-05-25T10:56:32.126Z,209.07
2023-05-25T10:57:32.126Z,292.75
2023-05-25T10:58:32.881Z,326.64
2023-05-25T10:59:32.163Z,214.21
2023-05-25T11:00:32.336Z,135.67
2023-05-25T11:01:32.204Z,113.65
2023-05-25T11:02:32.352Z,123.19
2023-05-25T11:03:32.132Z,138.36
2023-05-25T11:04:32.215Z,152.68
2023-05-25T11:05:32.116Z,121.36
2023-05-25T11:06:31.967Z,172.98
2023-05-25T11:07:32.174Z,120.5
2023-05-25T11:08:32.142Z,133.1
2023-05-25T11:09:32.137Z,126.61
2023-05-25T11:10:32.134Z,144.85
2023-05-25T11:11:32.114Z,254.21
2023-05-25T11:12:32.164Z,160.87
2023-05-25T11:13:32.140Z,359.18
2023-05-25T11:14:32.146Z,156.59
2023-05-25T11:15:32.108Z,268.9
2023-05-25T11:16:32.202Z,224.61
2023-05-25T11:17:32.141Z,156.95
2023-05-25T11:18:32.147Z,179.59
2023-05-25T11:19:32.119Z,246.75
2023-05-25T11:20:32.221Z,195.12
2023-05-25T11:21:47.966Z,239.41
2023-05-25T11:22:33.149Z,220.69
2023-05-25T11:23:32.167Z,196.47
2023-05-25T11:24:32.159Z,188.27
2023-05-25T11:25:47.965Z,262.41
2023-05-25T11:26:32.174Z,223.75
2023-05-25T11:27:32.207Z,155.73
2023-05-25T11:28:32.127Z,155.73
2023-05-25T11:29:47.931Z,140.93
2023-05-25T11:30:32.162Z,158.3
2023-05-25T11:31:34.172Z,124.41
2023-05-25T11:32:32.177Z,208.58
2023-05-25T11:33:32.115Z,233.29
2023-05-25T11:34:32.217Z,110.1
2023-05-25T11:35:32.112Z,112.67
2023-05-25T11:36:47.932Z,133.95
2023-05-25T11:37:32.233Z,127.1
2023-05-25T11:38:32.143Z,302.29
2023-05-25T11:39:32.146Z,265.83
2023-05-25T11:40:48.013Z,240.27
2023-05-25T11:41:32.181Z,104.48
2023-05-25T11:42:32.127Z,158.3
2023-05-25T11:43:32.143Z,546.96
2023-05-25T11:44:32.136Z,466.71
2023-05-25T11:45:32.138Z,470.62
2023-05-25T11:46:32.160Z,676.27
2023-05-25T11:47:34.042Z,678.84
2023-05-25T11:48:32.764Z,673.21
2023-05-25T11:49:32.137Z,671.87
2023-05-25T11:50:32.153Z,667.1
2023-05-25T11:51:32.152Z,663.67
2023-05-25T11:52:32.124Z,651.93
2023-05-25T11:53:32.552Z,652.42
2023-05-25T11:54:32.138Z,659.76
2023-05-25T11:55:32.114Z,665.02
2023-05-25T11:56:35.455Z,671.5
2023-05-25T11:57:32.137Z,680.55
2023-05-25T11:58:32.340Z,481.88
2023-05-25T11:59:32.715Z,588.68
2023-05-25T12:00:32.166Z,696.7
2023-05-25T12:01:32.182Z,696.7
2023-05-25T12:02:32.222Z,704.04
2023-05-25T12:03:32.266Z,704.9
2023-05-25T12:04:32.312Z,704.41
2023-05-25T12:05:32.141Z,710.04
2023-05-25T12:06:32.140Z,709.18
2023-05-25T12:07:32.141Z,713.09
2023-05-25T12:08:32.784Z,712.24
2023-05-25T12:09:32.118Z,713.09
2023-05-25T12:10:32.176Z,394.66
2023-05-25T12:11:32.098Z,383.4
2023-05-25T12:12:32.140Z,335.69
2023-05-25T12:13:32.135Z,155.24
2023-05-25T12:14:32.112Z,148.27
2023-05-25T12:15:32.108Z,124.05
2023-05-25T12:16:32.203Z,130.53
2023-05-25T12:17:32.192Z,127.96
2023-05-25T12:18:32.136Z,143.5
2023-05-25T12:19:32.173Z,692.79
2023-05-25T12:20:32.213Z,681.04
2023-05-25T12:21:32.115Z,674.93
2023-05-25T12:22:32.112Z,671.01
2023-05-25T12:23:32.101Z,689.24
2023-05-25T12:24:32.183Z,698.78
2023-05-25T12:25:46.056Z,702.7
2023-05-25T12:26:32.138Z,705.75
2023-05-25T12:27:32.112Z,712.73
2023-05-25T12:28:32.586Z,717.5
2023-05-25T12:29:32.106Z,713.95
2023-05-25T12:30:32.203Z,708.33
2023-05-25T12:31:32.145Z,699.64
2023-05-25T12:32:32.175Z,704.9
2023-05-25T12:33:32.120Z,702.33
2023-05-25T12:34:32.114Z,704.41
2023-05-25T12:35:32.122Z,705.26
2023-05-25T12:36:32.142Z,698.41
2023-05-25T12:37:32.169Z,693.65
2023-05-25T12:38:32.135Z,684.47
2023-05-25T12:39:32.159Z,680.19
2023-05-25T12:40:32.134Z,671.01
2023-05-25T12:41:32.136Z,670.16
2023-05-25T12:42:32.128Z,665.87
2023-05-25T12:43:32.105Z,659.39
2023-05-25T12:44:32.158Z,654.62
2023-05-25T12:45:32.131Z,654.62
2023-05-25T12:46:32.209Z,648.01
2023-05-25T12:47:32.102Z,650.21
2023-05-25T12:48:32.637Z,647.16
2023-05-25T12:49:32.173Z,645.45
2023-05-25T12:50:32.641Z,645.45
2023-05-25T12:51:32.142Z,635.53
2023-05-25T12:52:32.164Z,641.16
2023-05-25T12:53:32.106Z,628.07
2023-05-25T12:54:32.137Z,630.28
2023-05-25T12:55:32.163Z,643.24
2023-05-25T12:56:32.132Z,560.91
2023-05-25T12:57:32.115Z,445.06
2023-05-25T12:58:32.349Z,622.94
2023-05-25T12:59:32.121Z,617.67
2023-05-25T13:01:32.238Z,404.2